EW5962 Weather Reports


Display with metric or nautical units.
time (UTC)temp
F
wind
direction
speed
MPH
gust
MPH
rain 1hr
in
rain 24hr
in
rain mn
in
humidity
%
barometer
mb
20191213031203 37 41 1.0 6.0 0.00 0.00 0.00 65 1032.7
20191213030703 37 88 0.0 1.0 0.00 0.00 0.00 64 1032.7
20191213030204 37 24 0.0 3.0 0.00 0.00 0.00 65 1032.8
20191213030010 36 63 0.0 4.0 0.00 0.00 0.00 64 1032.8
20191213024703 37 96 0.0 2.0 0.00 0.00 0.00 65 1032.9
20191213024203 37 98 0.0 1.0 0.00 0.00 0.00 65 1032.9
20191213023704 37 133 0.0 1.0 0.00 0.00 0.00 65 1032.7
20191213023203 36 134 1.0 5.0 0.00 0.00 0.00 65 1032.5
20191213021704 36 92 0.0 2.0 0.00 0.00 0.00 68 1032.8
20191213021203 35 76 0.0 1.0 0.00 0.00 0.00 69 1032.9
20191213020703 35 32 0.0 0.0 0.00 0.00 0.00 70 1032.9
20191213020203 35 20 1.0 3.0 0.00 0.00 0.00 71 1033.0
20191213014703 33 39 1.0 5.0 0.00 0.00 0.00 78 1032.8
20191213014519 32 39 0.0 2.0 0.00 0.00 0.00 81 1032.8
20191213014203 32 38 0.0 2.0 0.00 0.00 0.00 84 1032.8
20191213013703 31 143 0.0 0.0 0.00 0.00 0.00 87 1033.0
20191213013203 30 143 0.0 0.0 0.00 0.00 0.00 87 1033.1
20191213013002 30 143 0.0 0.0 0.00 0.00 0.00 88 1033.2
20191213011703 30 143 0.0 0.0 0.00 0.00 0.00 88 1033.4
20191213011516 29 143 0.0 0.0 0.00 0.00 0.00 88 1033.5
20191213011203 30 143 0.0 0.0 0.00 0.00 0.00 88 1033.5
20191213010703 30 143 0.0 0.0 0.00 0.00 0.00 87 1033.5
20191213010203 30 143 0.0 0.0 0.00 0.00 0.00 88 1033.4
20191213010050 29 143 0.0 0.0 0.00 0.00 0.00 87 1033.4
20191213004702 30 143 0.0 0.0 0.00 0.00 0.00 87 1033.5
20191213004524 30 143 0.0 0.0 0.00 0.00 0.00 87 1033.5
20191213004203 30 143 0.0 0.0 0.00 0.00 0.00 87 1033.6
20191213003702 30 143 0.0 0.0 0.00 0.00 0.00 87 1033.5
20191213003202 30 143 0.0 0.0 0.00 0.00 0.00 87 1033.4
20191213003004 30 143 0.0 0.0 0.00 0.00 0.00 86 1033.4
20191213001703 30 143 0.0 0.0 0.00 0.00 0.00 85 1033.5
20191213001203 31 143 0.0 0.0 0.00 0.00 0.00 85 1033.5
20191213000703 31 143 0.0 0.0 0.00 0.00 0.00 84 1033.6
20191213000203 31 143 0.0 0.0 0.00 0.00 0.00 83 1033.7
20191213000104 31 143 0.0 0.0 0.00 0.00 0.00 83 1033.8
20191212234702 32 143 0.0 0.0 0.00 0.00 0.00 84 1033.6
20191212234502 31 143 0.0 0.0 0.00 0.00 0.00 83 1033.6
20191212234203 32 143 0.0 0.0 0.00 0.00 0.00 83 1033.7
20191212233702 32 143 0.0 0.0 0.00 0.00 0.00 82 1033.7
20191212233203 32 143 0.0 0.0 0.00 0.00 0.00 80 1033.8
20191212233004 32 143 0.0 0.0 0.00 0.00 0.00 80 1033.8
20191212231703 33 143 0.0 0.0 0.00 0.00 0.00 78 1033.9
20191212231202 33 143 0.0 0.0 0.00 0.00 0.00 77 1033.9
20191212230703 34 143 0.0 0.0 0.00 0.00 0.00 76 1034.0
20191212230203 34 143 0.0 0.0 0.00 0.00 0.00 76 1034.0
20191212230154 34 143 0.0 0.0 0.00 0.00 0.00 74 1034.0
20191212224703 36 143 0.0 0.0 0.00 0.00 0.00 72 1034.0
20191212224600 36 143 0.0 0.0 0.00 0.00 0.00 71 1034.0
20191212224203 37 143 0.0 0.0 0.00 0.00 0.00 70 1034.0
20191212223702 37 143 0.0 0.0 0.00 0.00 0.00 70 1034.0
20191212223203 38 143 0.0 0.0 0.00 0.00 0.00 68 1034.0
20191212223029 37 143 0.0 0.0 0.00 0.00 0.00 68 1034.0
20191212221702 39 143 0.0 0.0 0.00 0.00 0.00 60 1034.0
20191212221526 39 143 0.0 0.0 0.00 0.00 0.00 59 1033.9
20191212221202 40 143 0.0 0.0 0.00 0.00 0.00 57 1034.0
20191212220703 40 143 0.0 0.0 0.00 0.00 0.00 55 1034.0
20191212220204 40 143 0.0 1.0 0.00 0.00 0.00 54 1034.0
20191212220120 40 143 0.0 1.0 0.00 0.00 0.00 54 1034.0
20191212214702 41 144 0.0 2.0 0.00 0.00 0.00 53 1033.9
20191212214203 41 59 0.0 0.0 0.00 0.00 0.00 52 1033.9
20191212213703 41 46 0.0 2.0 0.00 0.00 0.00 51 1034.0
20191212213202 42 118 0.0 1.0 0.00 0.00 0.00 51 1034.1
20191212213003 41 118 0.0 1.0 0.00 0.00 0.00 51 1034.1
20191212211702 42 57 1.0 5.0 0.00 0.00 0.00 50 1034.2
20191212211501 42 28 1.0 5.0 0.00 0.00 0.00 50 1034.2
20191212211203 42 87 1.0 2.0 0.00 0.00 0.00 51 1034.2
20191212210703 42 91 0.0 2.0 0.00 0.00 0.00 50 1034.2
20191212210202 42 62 1.0 3.0 0.00 0.00 0.00 50 1034.2
20191212210012 42 132 0.0 4.0 0.00 0.00 0.00 50 1034.2
20191212204702 43 54 1.0 7.0 0.00 0.00 0.00 50 1034.3
20191212204502 42 24 1.0 7.0 0.00 0.00 0.00 50 1034.3
20191212204203 43 131 0.0 2.0 0.00 0.00 0.00 50 1034.2
20191212203703 43 119 0.0 1.0 0.00 0.00 0.00 51 1034.3
20191212203203 43 18 0.0 6.0 0.00 0.00 0.00 49 1034.4
20191212203014 43 53 0.0 6.0 0.00 0.00 0.00 50 1034.4
20191212201703 43 138 0.0 1.0 0.00 0.00 0.00 50 1034.4
20191212201529 43 138 0.0 5.0 0.00 0.00 0.00 50 1034.4
20191212201203 43 49 1.0 5.0 0.00 0.00 0.00 49 1034.5
20191212200702 43 110 0.0 3.0 0.00 0.00 0.00 50 1034.6
20191212200202 43 76 2.0 6.0 0.00 0.00 0.00 50 1034.6
20191212200007 43 74 0.0 6.0 0.00 0.00 0.00 51 1034.6
20191212194702 44 38 1.0 3.0 0.00 0.00 0.00 50 1034.8
20191212194514 43 41 0.0 4.0 0.00 0.00 0.00 50 1034.8
20191212194203 44 136 0.0 2.0 0.00 0.00 0.00 51 1034.8
20191212193702 43 74 0.0 2.0 0.00 0.00 0.00 49 1034.9
20191212193203 43 87 0.0 3.0 0.00 0.00 0.00 50 1034.9
20191212191703 43 107 1.0 2.0 0.00 0.00 0.00 50 1035.2
20191212191515 42 51 0.0 5.0 0.00 0.00 0.00 50 1035.2
20191212191202 43 134 0.0 3.0 0.00 0.00 0.00 50 1035.2
20191212190703 43 104 1.0 3.0 0.00 0.00 0.00 51 1035.3
20191212190203 42 127 1.0 8.0 0.00 0.00 0.00 50 1035.4
20191212190023 42 136 1.0 7.0 0.00 0.00 0.00 51 1035.4
20191212184703 43 139 1.0 5.0 0.00 0.00 0.00 51 1035.5
20191212184203 42 103 1.0 2.0 0.00 0.00 0.00 51 1035.5
20191212183702 42 119 1.0 3.0 0.00 0.00 0.00 51 1035.5
20191212183203 42 106 1.0 7.0 0.00 0.00 0.00 50 1035.7
20191212183048 42 82 1.0 9.0 0.00 0.00 0.00 51 1035.7
20191212181702 42 45 4.0 9.0 0.00 0.00 0.00 51 1036.1
20191212181532 41 53 4.0 10.0 0.00 0.00 0.00 51 1036.1
20191212181203 42 60 3.0 6.0 0.00 0.00 0.00 51 1036.2
20191212180703 42 87 1.0 3.0 0.00 0.00 0.00 51 1036.3
20191212180202 41 115 1.0 7.0 0.00 0.00 0.00 52 1036.4
20191212180035 41 73 1.0 7.0 0.00 0.00 0.00 53 1036.4
20191212174702 41 108 1.0 6.0 0.00 0.00 0.00 53 1036.7
20191212174541 40 116 2.0 9.0 0.00 0.00 0.00 54 1036.6
20191212174202 41 45 2.0 9.0 0.00 0.00 0.00 52 1036.7
20191212173703 41 98 1.0 5.0 0.00 0.00 0.00 53 1036.8
20191212173203 41 113 1.0 8.0 0.00 0.00 0.00 54 1036.9
20191212173038 40 141 1.0 8.0 0.00 0.00 0.00 54 1037.0
20191212171703 40 76 1.0 3.0 0.00 0.00 0.00 54 1037.2
20191212171658 39 41 0.0 7.0 0.00 0.00 0.00 55 1037.3
20191212171202 40 36 3.0 7.0 0.00 0.00 0.00 54 1037.3
20191212170703 40 58 1.0 5.0 0.00 0.00 0.00 56 1037.3
20191212170203 39 90 3.0 8.0 0.00 0.00 0.00 57 1037.5
20191212164702 39 103 0.0 3.0 0.00 0.00 0.00 57 1037.9
20191212164502 38 120 0.0 7.0 0.00 0.00 0.00 56 1037.9
20191212164203 39 63 3.0 6.0 0.00 0.00 0.00 56 1038.0
20191212163702 39 56 1.0 6.0 0.00 0.00 0.00 58 1038.0
20191212163203 39 32 1.0 6.0 0.00 0.00 0.00 58 1038.1
20191212163007 38 54 0.0 7.0 0.00 0.00 0.00 58 1038.2
20191212161702 38 124 2.0 6.0 0.00 0.00 0.00 59 1038.4
20191212161508 37 45 3.0 7.0 0.00 0.00 0.00 59 1038.4
20191212161203 38 47 2.0 5.0 0.00 0.00 0.00 58 1038.4
20191212160703 38 100 2.0 7.0 0.00 0.00 0.00 57 1038.4
20191212160203 38 110 1.0 8.0 0.00 0.00 0.00 58 1038.4
20191212160002 37 72 1.0 8.0 0.00 0.00 0.00 59 1038.4
20191212154703 37 63 2.0 6.0 0.00 0.00 0.00 60 1038.5
20191212154544 36 37 3.0 7.0 0.00 0.00 0.00 60 1038.5
20191212154203 37 58 1.0 6.0 0.00 0.00 0.00 61 1038.6
20191212153702 37 54 2.0 8.0 0.00 0.00 0.00 60 1038.6
20191212153203 37 67 1.0 8.0 0.00 0.00 0.00 60 1038.7
20191212153015 36 39 1.0 8.0 0.00 0.00 0.00 60 1038.7
20191212151703 36 126 2.0 5.0 0.00 0.00 0.00 62 1038.6
20191212151547 36 137 1.0 6.0 0.00 0.00 0.00 63 1038.7
20191212151203 36 135 1.0 3.0 0.00 0.00 0.00 62 1038.6
20191212150703 36 73 1.0 12.0 0.00 0.00 0.00 63 1038.6
20191212150202 36 80 1.0 9.0 0.00 0.00 0.00 62 1038.6
20191212150041 35 70 2.0 11.0 0.00 0.00 0.00 62 1038.6
20191212144702 35 101 1.0 8.0 0.00 0.00 0.00 65 1038.5
20191212144538 35 19 1.0 8.0 0.00 0.01 0.00 65 1038.5
20191212144203 35 115 2.0 6.0 0.00 0.00 0.00 65 1038.5
20191212143703 35 46 1.0 6.0 0.00 0.00 0.00 66 1038.4
20191212143203 35 113 0.0 6.0 0.00 0.00 0.00 67 1038.3
20191212143112 34 115 0.0 6.0 0.00 0.01 0.00 66 1038.3
20191212141702 34 108 1.0 2.0 0.00 0.00 0.00 70 1038.4
20191212141524 33 143 0.0 5.0 0.00 0.01 0.00 68 1038.4
20191212141203 34 59 0.0 5.0 0.00 0.00 0.00 68 1038.4
20191212140703 33 49 1.0 5.0 0.00 0.00 0.00 69 1038.3
20191212140202 33 73 0.0 7.0 0.00 0.00 0.00 71 1038.3
20191212140009 33 81 0.0 6.0 0.00 0.01 0.00 71 1038.2
20191212134702 33 83 0.0 2.0 0.00 0.01 0.00 72 1037.9
20191212134536 32 88 0.0 4.0 0.00 0.01 0.00 73 1037.9
20191212134202 32 132 1.0 3.0 0.00 0.01 0.00 73 1037.9
20191212133703 32 67 0.0 1.0 0.00 0.01 0.00 75 1037.9
20191212133203 32 70 0.0 2.0 0.00 0.01 0.00 76 1037.8
20191212133041 31 62 0.0 2.0 0.00 0.01 0.00 78 1037.8
20191212131703 30 74 0.0 3.0 0.00 0.01 0.00 80 1037.7
20191212131203 30 42 0.0 0.0 0.00 0.01 0.00 82 1037.8
20191212130702 29 55 0.0 1.0 0.00 0.01 0.00 83 1037.7
20191212130202 29 37 0.0 5.0 0.00 0.01 0.00 85 1037.7
20191212130128 28 37 0.0 4.0 0.00 0.01 0.00 85 1037.6
20191212124703 27 41 0.0 0.0 0.00 0.01 0.00 91 1037.6
20191212124203 26 39 0.0 0.0 0.00 0.01 0.00 92 1037.5
20191212123703 26 41 0.0 0.0 0.00 0.01 0.00 92 1037.4
20191212123203 26 41 0.0 0.0 0.00 0.01 0.00 92 1037.3
20191212123001 26 41 0.0 0.0 0.00 0.01 0.00 92 1037.3
20191212121702 26 43 0.0 0.0 0.00 0.01 0.00 91 1037.1
20191212121501 26 43 0.0 0.0 0.00 0.01 0.00 91 1037.0
20191212121202 27 43 0.0 0.0 0.00 0.01 0.00 91 1037.0
20191212120703 27 43 0.0 0.0 0.00 0.01 0.00 91 1036.8
20191212120203 27 43 0.0 0.0 0.00 0.01 0.00 91 1036.8
20191212120031 26 43 0.0 0.0 0.00 0.01 0.00 91 1036.8
20191212114703 26 45 0.0 0.0 0.00 0.01 0.00 93 1036.6
20191212114545 26 45 0.0 0.0 0.00 0.01 0.00 93 1036.6
20191212114203 26 45 0.0 0.0 0.00 0.01 0.00 92 1036.6
20191212113703 27 45 0.0 0.0 0.00 0.02 0.00 92 1036.5
20191212113203 27 45 0.0 0.0 0.00 0.02 0.00 91 1036.3
20191212111703 27 43 0.0 0.0 0.00 0.02 0.00 92 1036.3
20191212111502 26 43 0.0 1.0 0.00 0.01 0.00 92 1036.2
20191212111203 26 42 0.0 0.0 0.00 0.02 0.00 92 1036.3
20191212110703 27 42 0.0 0.0 0.00 0.03 0.00 92 1036.3
20191212110203 27 42 0.0 0.0 0.00 0.03 0.00 92 1036.3
20191212110026 26 42 0.0 0.0 0.00 0.01 0.00 92 1036.3
20191212104703 27 42 0.0 0.0 0.00 0.04 0.00 92 1036.2
20191212104203 27 42 0.0 0.0 0.00 0.04 0.00 93 1036.1
20191212103703 26 42 0.0 0.0 0.00 0.05 0.00 94 1036.2
20191212103203 26 42 0.0 2.0 0.00 0.05 0.00 95 1036.1
20191212103107 25 42 0.0 2.0 0.00 0.01 0.00 95 1036.1
20191212101703 25 36 0.0 1.0 0.00 0.06 0.00 96 1036.0
20191212101501 24 36 0.0 2.0 0.00 0.01 0.00 96 1035.9
20191212101203 24 334 0.0 2.0 0.00 0.08 0.00 96 1036.0
20191212100704 24 325 0.0 0.0 0.00 0.08 0.00 95 1035.9
20191212100203 24 325 0.0 0.0 0.00 0.08 0.00 95 1036.0
20191212100019 23 325 0.0 1.0 0.00 0.01 0.00 95 1035.9
20191212094703 23 324 0.0 0.0 0.00 0.09 0.00 95 1035.8
20191212094514 23 324 0.0 0.0 0.00 0.01 0.00 95 1035.8
20191212094204 23 324 0.0 0.0 0.00 0.09 0.00 95 1035.8
20191212093703 23 324 0.0 0.0 0.00 0.09 0.00 95 1035.8
20191212093203 23 324 0.0 0.0 0.00 0.10 0.00 95 1035.8
20191212093019 23 324 0.0 0.0 0.00 0.01 0.00 95 1035.8
20191212091704 24 324 0.0 0.0 0.00 0.10 0.00 95 1035.8
20191212090703 24 324 0.0 0.0 0.00 0.11 0.00 95 1035.7
20191212090202 24 324 0.0 0.0 0.00 0.11 0.00 95 1035.6
20191212090141 24 324 0.0 0.0 0.00 0.01 0.00 95 1035.6
20191212084702 24 324 0.0 0.0 0.00 0.11 0.00 95 1035.7
20191212084203 24 324 0.0 0.0 0.00 0.11 0.00 95 1035.6
20191212083703 24 324 0.0 0.0 0.00 0.11 0.00 95 1035.6
20191212083203 24 324 0.0 1.0 0.00 0.11 0.00 95 1035.4
20191212083005 24 324 0.0 1.0 0.00 0.02 0.00 95 1035.4
20191212081702 24 324 0.0 0.0 0.00 0.11 0.00 95 1035.5
20191212081501 24 324 0.0 0.0 0.00 0.02 0.00 95 1035.5
20191212081203 24 324 0.0 0.0 0.00 0.12 0.00 95 1035.4
20191212080703 24 324 0.0 0.0 0.00 0.12 0.00 95 1035.4
20191212080202 24 324 0.0 0.0 0.00 0.12 0.00 95 1035.3
20191212080032 24 324 0.0 0.0 0.00 0.02 0.00 95 1035.3
20191212074703 25 324 0.0 0.0 0.00 0.13 0.00 95 1035.2
20191212074203 25 324 0.0 0.0 0.00 0.14 0.00 95 1035.1
20191212073703 25 324 0.0 0.0 0.00 0.14 0.00 95 1035.1
20191212073203 25 324 0.0 0.0 0.00 0.14 0.00 95 1035.0
20191212071703 25 323 0.0 0.0 0.00 0.14 0.00 95 1034.9
20191212071202 25 323 0.0 1.0 0.00 0.14 0.00 95 1034.8
20191212070702 25 323 0.0 0.0 0.00 0.14 0.00 95 1034.7
20191212064702 25 323 0.0 0.0 0.00 0.14 0.00 95 1034.5
20191212064502 25 323 0.0 0.0 0.00 0.10 0.00 95 1034.4
20191212064202 25 323 0.0 0.0 0.00 0.15 0.00 95 1034.4
20191212063702 25 323 0.0 0.0 0.00 0.15 0.00 95 1034.3
20191212063203 25 323 0.0 0.0 0.00 0.15 0.00 95 1034.1
20191212063003 25 323 0.0 0.0 0.00 0.10 0.00 95 1034.1
20191212061702 25 323 0.0 0.0 0.00 0.15 0.00 95 1034.1
20191212061203 25 323 0.0 0.0 0.00 0.15 0.00 95 1034.0
20191212060703 25 323 0.0 0.0 0.00 0.15 0.00 95 1034.0
20191212060202 25 323 0.0 0.0 0.00 0.15 0.00 94 1034.1
20191212060028 25 323 0.0 0.0 0.00 0.10 0.00 94 1034.0
20191212054702 26 323 0.0 0.0 0.00 0.15 0.00 95 1033.9
20191212054502 25 323 0.0 0.0 0.00 0.12 0.00 95 1033.9
20191212054203 26 323 0.0 0.0 0.00 0.15 0.00 95 1033.9
20191212053702 26 323 0.0 0.0 0.00 0.16 0.00 94 1033.7
20191212053202 26 323 0.0 0.0 0.00 0.16 0.00 94 1033.7
20191212053018 25 323 0.0 0.0 0.00 0.12 0.00 94 1033.7
20191212051702 26 323 0.0 0.0 0.00 0.18 0.00 95 1033.7
20191212051511 26 323 0.0 0.0 0.00 0.12 0.00 95 1033.7
20191212051202 26 323 0.0 0.0 0.00 0.18 0.00 94 1033.8
20191212050703 26 323 0.0 0.0 0.00 0.19 0.00 94 1033.8
20191212050202 26 323 0.0 0.0 0.00 0.19 0.00 94 1033.7
20191212050054 26 323 0.0 0.0 0.00 0.12 0.00 94 1033.7
20191212044702 26 323 0.0 0.0 0.00 0.19 0.12 94 1033.7
20191212044503 26 323 0.0 0.0 0.00 0.14 0.12 94 1033.7
20191212044202 27 323 0.0 0.0 0.00 0.19 0.12 94 1033.7
20191212043703 27 323 0.0 0.0 0.00 0.20 0.12 94 1033.7
20191212043202 27 323 0.0 0.0 0.00 0.20 0.12 94 1033.7
20191212043008 26 323 0.0 0.0 0.00 0.14 0.12 94 1033.7
20191212041703 27 323 0.0 0.0 0.00 0.20 0.12 94 1033.7
20191212041548 26 323 0.0 0.0 0.00 0.14 0.12 94 1033.8
20191212041203 27 323 0.0 0.0 0.00 0.20 0.12 94 1033.8
20191212040703 27 323 0.0 0.0 0.00 0.20 0.12 94 1033.8
20191212040202 27 323 0.0 0.0 0.00 0.20 0.12 94 1033.7
20191212040039 26 323 0.0 0.0 0.00 0.14 0.12 93 1033.7
20191212034703 27 323 0.0 0.0 0.00 0.20 0.12 94 1033.7
20191212034542 27 323 0.0 0.0 0.00 0.15 0.12 93 1033.7
20191212034203 27 323 0.0 0.0 0.00 0.20 0.12 93 1033.7
20191212033703 27 323 0.0 0.0 0.00 0.20 0.12 93 1033.6
20191212033203 27 323 0.0 0.0 0.00 0.20 0.12 93 1033.6
20191212033046 27 323 0.0 0.0 0.00 0.15 0.12 93 1033.5
20191212031702 28 323 0.0 0.0 0.00 0.21 0.12 93 1033.4
20191212031536 27 323 0.0 0.0 0.00 0.15 0.12 93 1033.4